createdAt,value
2019-01-27T00:01:46.855Z,100700.61
2019-01-27T00:04:18.895Z,100701.61
2019-01-27T00:06:50.475Z,100702.48
2019-01-27T00:09:21.708Z,100702.21
2019-01-27T00:11:52.896Z,100696.72
2019-01-27T00:14:24.101Z,100698.39
2019-01-27T00:16:55.332Z,100703.27
2019-01-27T00:19:26.579Z,100702.65
2019-01-27T00:21:57.851Z,100698.48
2019-01-27T00:24:29.043Z,100705.89
2019-01-27T00:27:00.209Z,100690.73
2019-01-27T00:29:31.401Z,100695.36
2019-01-27T00:32:02.583Z,100697.74
2019-01-27T00:34:33.870Z,100696.59
2019-01-27T00:37:05.334Z,100708.50
2019-01-27T00:39:36.567Z,100704.39
2019-01-27T00:42:07.752Z,100706.06
2019-01-27T00:44:39.055Z,100695.88
2019-01-27T00:47:10.241Z,100701.80
2019-01-27T00:49:41.459Z,100697.52
2019-01-27T00:52:12.744Z,100697.45
2019-01-27T00:54:43.945Z,100691.44
2019-01-27T00:57:15.146Z,100706.65
2019-01-27T00:59:46.998Z,100707.00
2019-01-27T01:02:18.177Z,100704.00
2019-01-27T01:04:49.384Z,100699.38
2019-01-27T01:07:20.673Z,100705.58
2019-01-27T01:09:51.858Z,100698.80
2019-01-27T01:12:23.213Z,100700.44
2019-01-27T01:14:54.429Z,100700.28
2019-01-27T01:17:25.707Z,100702.73
2019-01-27T01:19:56.994Z,100699.41
2019-01-27T01:22:28.178Z,100696.66
2019-01-27T01:24:59.374Z,100710.45
2019-01-27T01:27:30.603Z,100708.52
2019-01-27T01:30:03.120Z,100701.39
2019-01-27T01:32:35.521Z,100695.50
2019-01-27T01:35:08.317Z,100698.02
2019-01-27T01:37:39.544Z,100705.05
2019-01-27T01:40:13.464Z,100695.59
2019-01-27T01:42:44.754Z,100702.88
2019-01-27T01:45:24.354Z,100709.06
2019-01-27T01:47:55.645Z,100700.38
2019-01-27T01:50:26.831Z,100694.34
2019-01-27T01:52:58.143Z,100694.11
2019-01-27T01:55:29.676Z,100685.03
2019-01-27T01:58:00.878Z,100686.11
2019-01-27T02:00:32.920Z,100677.41
2019-01-27T02:03:04.217Z,100681.51
2019-01-27T02:05:35.393Z,100677.19
2019-01-27T02:08:06.579Z,100674.77
2019-01-27T02:10:38.012Z,100676.00
2019-01-27T02:13:09.979Z,100677.95
2019-01-27T02:16:04.112Z,100681.70
2019-01-27T02:18:36.881Z,100678.19
2019-01-27T02:21:08.694Z,100667.41
2019-01-27T02:23:41.053Z,100672.23
2019-01-27T02:26:12.736Z,100662.32
2019-01-27T02:28:44.324Z,100674.08
2019-01-27T02:31:15.610Z,100668.16
2019-01-27T02:33:46.895Z,100658.09
2019-01-27T02:36:18.096Z,100655.22
2019-01-27T02:38:49.276Z,100651.09
2019-01-27T02:41:20.475Z,100654.23
2019-01-27T02:43:51.745Z,100647.72
2019-01-27T02:46:22.941Z,100647.82
2019-01-27T02:48:54.161Z,100638.03
2019-01-27T02:51:25.363Z,100638.03
2019-01-27T02:53:56.776Z,100645.06
2019-01-27T02:56:27.897Z,100631.05
2019-01-27T02:58:59.138Z,100634.66
2019-01-27T03:01:30.320Z,100632.75
2019-01-27T03:04:01.710Z,100635.13
2019-01-27T03:06:54.785Z,100625.72
2019-01-27T03:09:30.164Z,100629.81
2019-01-27T03:12:01.368Z,100635.16
2019-01-27T03:14:32.697Z,100635.50
2019-01-27T03:17:04.705Z,100640.22
2019-01-27T03:19:35.882Z,100629.33
2019-01-27T03:22:07.068Z,100641.92
2019-01-27T03:24:38.266Z,100642.41
2019-01-27T03:27:09.468Z,100635.53
2019-01-27T03:29:40.790Z,100632.98
2019-01-27T03:32:12.725Z,100630.67
2019-01-27T03:34:43.942Z,100638.79
2019-01-27T03:37:15.201Z,100631.03
2019-01-27T03:39:46.980Z,100639.86
2019-01-27T03:42:18.163Z,100636.35
2019-01-27T03:44:49.385Z,100628.26
2019-01-27T03:47:20.576Z,100619.20
2019-01-27T03:49:51.768Z,100618.82
2019-01-27T03:52:23.150Z,100630.54
2019-01-27T03:54:54.367Z,100617.14
2019-01-27T03:57:25.529Z,100613.36
2019-01-27T03:59:56.809Z,100620.15
2019-01-27T04:02:28.083Z,100611.69
2019-01-27T04:04:59.325Z,100609.75
2019-01-27T04:07:30.521Z,100595.03
2019-01-27T04:10:01.733Z,100601.33
2019-01-27T04:12:33.009Z,100592.86
2019-01-27T04:15:05.058Z,100599.02
2019-01-27T04:17:36.272Z,100601.42
2019-01-27T04:20:10.362Z,100594.28
2019-01-27T04:22:42.148Z,100598.86
2019-01-27T04:25:15.381Z,100598.86
2019-01-27T04:27:46.722Z,100589.81
2019-01-27T04:30:29.890Z,100589.55
2019-01-27T04:33:00.962Z,100593.41
2019-01-27T04:35:32.719Z,100590.88
2019-01-27T04:38:04.241Z,100584.11
2019-01-27T04:40:35.541Z,100585.66
2019-01-27T04:43:06.766Z,100574.39
2019-01-27T04:45:39.176Z,100574.39
2019-01-27T04:48:10.343Z,100588.42
2019-01-27T04:50:41.857Z,100591.03
2019-01-27T04:53:12.930Z,100578.52
2019-01-27T04:55:44.061Z,100570.06
2019-01-27T04:58:15.721Z,100569.56
2019-01-27T05:00:46.935Z,100576.95
2019-01-27T05:03:36.830Z,100573.83
2019-01-27T05:06:08.099Z,100567.14
2019-01-27T05:08:39.371Z,100573.91
2019-01-27T05:11:10.556Z,100583.72
2019-01-27T05:13:43.221Z,100578.25
2019-01-27T05:16:14.475Z,100582.48
2019-01-27T05:18:45.781Z,100588.45
2019-01-27T05:21:17.033Z,100584.38
2019-01-27T05:23:48.194Z,100590.30
2019-01-27T05:26:19.456Z,100585.96
2019-01-27T05:28:50.714Z,100578.20
2019-01-27T05:31:22.045Z,100579.90
2019-01-27T05:33:53.854Z,100581.58
2019-01-27T05:36:25.381Z,100583.28
2019-01-27T05:38:56.759Z,100575.17
2019-01-27T05:41:27.959Z,100597.59
2019-01-27T05:43:59.115Z,100573.59
2019-01-27T05:46:30.449Z,100575.16
2019-01-27T05:49:01.635Z,100571.16
2019-01-27T05:51:32.929Z,100564.47
2019-01-27T05:54:04.126Z,100557.94
2019-01-27T05:56:35.691Z,100566.92
2019-01-27T05:59:06.993Z,100560.89
2019-01-27T06:01:38.164Z,100559.92
2019-01-27T06:04:09.809Z,100565.73
2019-01-27T06:06:40.968Z,100572.61
2019-01-27T06:09:12.168Z,100560.80
2019-01-27T06:11:43.367Z,100569.58
2019-01-27T06:14:14.706Z,100555.09
2019-01-27T06:16:45.867Z,100558.75
2019-01-27T06:19:17.321Z,100556.76
2019-01-27T06:21:48.563Z,100560.99
2019-01-27T06:24:19.884Z,100559.26
2019-01-27T06:26:51.127Z,100558.53
2019-01-27T06:29:22.714Z,100559.09
2019-01-27T06:31:53.977Z,100563.98
2019-01-27T06:34:25.329Z,100559.32
2019-01-27T06:36:56.672Z,100561.81
2019-01-27T06:39:28.051Z,100566.25
2019-01-27T06:41:59.257Z,100562.08
2019-01-27T06:44:30.422Z,100557.83
2019-01-27T06:47:01.808Z,100556.94
2019-01-27T06:49:33.034Z,100548.98
2019-01-27T06:52:04.446Z,100551.00
2019-01-27T06:54:35.680Z,100549.20
2019-01-27T06:57:07.005Z,100537.14
2019-01-27T06:59:55.263Z,100544.66
2019-01-27T07:02:40.951Z,100546.28
2019-01-27T07:05:21.445Z,100545.93
2019-01-27T07:07:59.494Z,100549.41
2019-01-27T07:10:57.566Z,100535.04
2019-01-27T07:13:47.815Z,100542.33
2019-01-27T07:16:50.324Z,100538.45
2019-01-27T07:19:46.479Z,100543.88
2019-01-27T07:22:42.996Z,100542.17
2019-01-27T07:25:51.486Z,100541.61
2019-01-27T07:28:30.383Z,100540.62
2019-01-27T07:31:30.898Z,100535.61
2019-01-27T07:34:20.362Z,100533.40
2019-01-27T07:36:57.282Z,100532.98
2019-01-27T07:40:02.926Z,100540.62
2019-01-27T07:42:42.173Z,100538.64
2019-01-27T07:45:48.442Z,100533.91
2019-01-27T07:48:38.813Z,100538.44
2019-01-27T07:51:47.048Z,100522.68
2019-01-27T07:54:31.950Z,100530.16
2019-01-27T07:57:22.179Z,100526.67
2019-01-27T08:00:11.739Z,100521.29
2019-01-27T08:03:11.795Z,100527.19
2019-01-27T08:05:59.361Z,100520.34
2019-01-27T08:08:53.799Z,100516.97
2019-01-27T08:11:49.855Z,100527.09
2019-01-27T08:14:30.621Z,100514.43
2019-01-27T08:17:23.782Z,100516.73
2019-01-27T08:20:14.304Z,100511.81
2019-01-27T08:23:02.112Z,100505.66
2019-01-27T08:25:53.041Z,100518.80
2019-01-27T08:28:52.151Z,100515.32
2019-01-27T08:31:35.089Z,100511.34
2019-01-27T08:34:25.036Z,100515.80
2019-01-27T08:37:06.754Z,100516.27
2019-01-27T08:39:56.918Z,100514.02
2019-01-27T08:42:45.891Z,100515.32
2019-01-27T08:45:37.585Z,100511.45
2019-01-27T08:48:08.790Z,100511.18
2019-01-27T08:50:40.136Z,100510.33
2019-01-27T08:53:11.347Z,100498.23
2019-01-27T08:55:44.286Z,100497.03
2019-01-27T08:58:15.398Z,100496.98
2019-01-27T09:00:55.189Z,100491.27
2019-01-27T09:03:34.695Z,100494.53
2019-01-27T09:06:25.194Z,100493.20
2019-01-27T09:09:20.417Z,100498.95
2019-01-27T09:11:59.573Z,100496.39
2019-01-27T09:14:41.828Z,100498.18
2019-01-27T09:17:35.123Z,100490.80
2019-01-27T09:20:39.378Z,100499.70
2019-01-27T09:23:34.391Z,100485.91
2019-01-27T09:26:27.528Z,100485.91
2019-01-27T09:29:12.063Z,100481.25
2019-01-27T09:31:52.260Z,100491.48
2019-01-27T09:34:38.169Z,100490.43
2019-01-27T09:37:26.480Z,100481.98
2019-01-27T09:40:11.651Z,100471.13
2019-01-27T09:42:52.774Z,100473.20
2019-01-27T09:45:39.233Z,100475.50
2019-01-27T09:48:29.348Z,100471.39
2019-01-27T09:51:19.512Z,100461.66
2019-01-27T09:54:15.834Z,100476.95
2019-01-27T09:57:07.927Z,100470.14
2019-01-27T09:59:56.723Z,100469.25
2019-01-27T10:02:49.730Z,100454.92
2019-01-27T10:05:29.031Z,100461.77
2019-01-27T10:08:07.717Z,100460.34
2019-01-27T10:10:55.764Z,100454.33
2019-01-27T10:14:04.072Z,100451.61
2019-01-27T10:16:51.042Z,100446.54
2019-01-27T10:19:29.122Z,100445.41
2019-01-27T10:22:15.960Z,100443.69
2019-01-27T10:25:06.258Z,100442.55
2019-01-27T10:27:49.525Z,100437.22
2019-01-27T10:30:31.569Z,100427.23
2019-01-27T10:33:24.899Z,100432.56
2019-01-27T10:36:33.300Z,100437.74
2019-01-27T10:39:25.455Z,100439.72
2019-01-27T10:42:18.756Z,100428.03
2019-01-27T10:45:08.243Z,100432.10
2019-01-27T10:47:57.366Z,100431.41
2019-01-27T10:51:05.997Z,100423.08
2019-01-27T10:53:52.090Z,100422.66
2019-01-27T10:56:34.801Z,100425.05
2019-01-27T10:59:21.991Z,100420.84
2019-01-27T11:02:10.841Z,100416.20
2019-01-27T11:05:03.921Z,100424.75
2019-01-27T11:07:45.921Z,100419.29
2019-01-27T11:10:40.264Z,100417.59
2019-01-27T11:13:41.192Z,100418.08
2019-01-27T11:16:34.802Z,100356.36
2019-01-27T11:19:28.045Z,100410.44
2019-01-27T11:22:25.410Z,100406.86
2019-01-27T11:25:22.116Z,100406.53
2019-01-27T11:28:09.399Z,100407.70
2019-01-27T11:30:59.460Z,100402.36
2019-01-27T11:33:53.516Z,100396.81
2019-01-27T11:36:38.747Z,100409.31
2019-01-27T11:39:28.923Z,100403.42
2019-01-27T11:42:12.402Z,100398.92
2019-01-27T11:45:02.235Z,100394.45
2019-01-27T11:47:45.867Z,100381.94
2019-01-27T11:50:30.280Z,100379.69
2019-01-27T11:53:07.814Z,100383.33
2019-01-27T11:55:41.320Z,100381.80
2019-01-27T11:58:21.059Z,100371.59
2019-01-27T12:00:56.694Z,100371.59
2019-01-27T12:03:33.432Z,100371.41
2019-01-27T12:06:14.994Z,100369.56
2019-01-27T12:09:16.380Z,100368.09
2019-01-27T12:12:10.121Z,100365.64
2019-01-27T12:14:41.218Z,100371.91
2019-01-27T12:17:14.498Z,100366.70
2019-01-27T12:19:47.896Z,100358.28
2019-01-27T12:22:21.881Z,100363.72
2019-01-27T12:24:53.152Z,100357.92
2019-01-27T12:27:27.630Z,100364.36
2019-01-27T12:30:00.950Z,100358.80
2019-01-27T12:32:36.824Z,100351.84
2019-01-27T12:35:08.718Z,100357.38
2019-01-27T12:37:41.556Z,100352.06
2019-01-27T12:40:17.842Z,100345.52
2019-01-27T12:42:52.466Z,100340.19
2019-01-27T12:45:31.603Z,100342.70
2019-01-27T12:48:17.131Z,100340.52
2019-01-27T12:50:48.648Z,100325.19
2019-01-27T12:53:21.955Z,100331.37
2019-01-27T12:55:53.829Z,100323.88
2019-01-27T12:58:25.385Z,100322.70
2019-01-27T13:01:00.705Z,100319.03
2019-01-27T13:03:32.764Z,100324.44
2019-01-27T13:06:07.502Z,100319.76
2019-01-27T13:08:52.132Z,100320.73
2019-01-27T13:11:31.533Z,100315.39
2019-01-27T13:14:04.478Z,100306.89
2019-01-27T13:16:38.566Z,100302.84
2019-01-27T13:19:12.696Z,100300.53
2019-01-27T13:21:44.092Z,100311.66
2019-01-27T13:24:16.002Z,100301.22
2019-01-27T13:26:49.436Z,100208.25
2019-01-27T13:29:20.648Z,100300.80
2019-01-27T13:31:52.002Z,100289.81
2019-01-27T13:34:23.223Z,100278.80
2019-01-27T13:36:54.429Z,100288.48
2019-01-27T13:39:25.765Z,100284.86
2019-01-27T13:41:58.467Z,100277.53
2019-01-27T13:44:31.097Z,100283.97
2019-01-27T13:47:04.167Z,100278.20
2019-01-27T13:49:37.551Z,100275.84
2019-01-27T13:52:10.326Z,100269.84
2019-01-27T13:54:43.270Z,100273.55
2019-01-27T13:57:18.514Z,100270.88
2019-01-27T13:59:52.681Z,100269.41
2019-01-27T14:02:24.864Z,100270.06
2019-01-27T14:04:56.221Z,100261.85
2019-01-27T14:07:27.420Z,100261.85
2019-01-27T14:09:58.765Z,100271.45
2019-01-27T14:12:29.954Z,100267.69
2019-01-27T14:15:01.166Z,100265.60
2019-01-27T14:17:32.678Z,100269.84
2019-01-27T14:20:05.694Z,100268.28
2019-01-27T14:22:36.892Z,100266.84
2019-01-27T14:25:08.957Z,100260.48
2019-01-27T14:27:40.163Z,100265.83
2019-01-27T14:30:14.381Z,100259.05
2019-01-27T14:32:45.751Z,100259.51
2019-01-27T14:35:17.121Z,100256.16
2019-01-27T14:37:48.316Z,100268.86
2019-01-27T14:40:21.688Z,100258.27
2019-01-27T14:42:52.897Z,100258.73
2019-01-27T14:45:26.111Z,100263.78
2019-01-27T14:47:57.431Z,100256.28
2019-01-27T14:50:34.356Z,100269.80
2019-01-27T14:53:06.515Z,100260.75
2019-01-27T14:55:37.763Z,100254.23
2019-01-27T14:58:08.968Z,100261.14
2019-01-27T15:00:42.586Z,100261.20
2019-01-27T15:03:15.154Z,100258.08
2019-01-27T15:05:46.373Z,100255.11
2019-01-27T15:08:17.585Z,100252.34
2019-01-27T15:10:48.831Z,100244.88
2019-01-27T15:13:20.069Z,100252.14
2019-01-27T15:15:52.920Z,100245.50
2019-01-27T15:18:24.389Z,100249.50
2019-01-27T15:21:00.477Z,100242.20
2019-01-27T15:23:33.211Z,100248.52
2019-01-27T15:26:04.459Z,100241.88
2019-01-27T15:28:35.678Z,100245.47
2019-01-27T15:31:06.917Z,100241.55
2019-01-27T15:33:38.380Z,100248.46
2019-01-27T15:36:09.619Z,100246.53
2019-01-27T15:38:40.836Z,100236.48
2019-01-27T15:41:12.763Z,100233.95
2019-01-27T15:43:48.712Z,100225.93
2019-01-27T15:46:17.830Z,100227.45
2019-01-27T15:48:49.056Z,100228.69
2019-01-27T15:51:20.255Z,100224.98
2019-01-27T15:53:51.570Z,100217.02
2019-01-27T15:56:22.774Z,100218.38
2019-01-27T15:58:53.996Z,100215.38
2019-01-27T16:01:25.754Z,100222.60
2019-01-27T16:03:57.066Z,100216.63
2019-01-27T16:06:28.339Z,100211.91
2019-01-27T16:08:59.677Z,100213.95
2019-01-27T16:11:30.948Z,100214.85
2019-01-27T16:14:02.810Z,100211.28
2019-01-27T16:16:34.125Z,100210.73
2019-01-27T16:19:05.654Z,100209.87
2019-01-27T16:21:36.857Z,100208.91
2019-01-27T16:24:18.186Z,100205.61
2019-01-27T16:26:53.953Z,100198.81
2019-01-27T16:29:49.019Z,100200.97
2019-01-27T16:32:40.955Z,100197.37
2019-01-27T16:35:18.495Z,100192.11
2019-01-27T16:37:50.903Z,100193.03
2019-01-27T16:40:22.568Z,100190.88
2019-01-27T16:42:54.067Z,100191.72
2019-01-27T16:45:25.342Z,100187.36
2019-01-27T16:47:56.711Z,100183.39
2019-01-27T16:50:27.985Z,100182.91
2019-01-27T16:52:59.309Z,100181.78
2019-01-27T16:55:30.610Z,100183.34
2019-01-27T16:58:03.495Z,100183.32
2019-01-27T17:00:34.871Z,100185.39
2019-01-27T17:03:09.282Z,100176.41
2019-01-27T17:05:40.511Z,100164.13
2019-01-27T17:08:12.247Z,100169.86
2019-01-27T17:10:44.132Z,100164.11
2019-01-27T17:13:15.496Z,100164.82
2019-01-27T17:15:46.773Z,100174.37
2019-01-27T17:18:17.987Z,100170.23
2019-01-27T17:20:49.265Z,100173.15
2019-01-27T17:23:20.475Z,100160.15
2019-01-27T17:25:53.665Z,100162.47
2019-01-27T17:28:24.766Z,100151.81
2019-01-27T17:30:57.273Z,100155.84
2019-01-27T17:33:29.567Z,100142.77
2019-01-27T17:36:00.840Z,100150.73
2019-01-27T17:38:32.583Z,100156.83
2019-01-27T17:41:03.967Z,100150.19
2019-01-27T17:43:35.255Z,100149.47
2019-01-27T17:46:06.886Z,100151.52
2019-01-27T17:48:38.101Z,100153.25
2019-01-27T17:51:09.317Z,100151.58
2019-01-27T17:54:05.447Z,100153.91
2019-01-27T17:56:36.951Z,100151.41
2019-01-27T17:59:20.410Z,100147.82
2019-01-27T18:02:10.628Z,100153.59
2019-01-27T18:05:25.564Z,100147.23
2019-01-27T18:08:31.392Z,100141.14
2019-01-27T18:11:17.782Z,100143.38
2019-01-27T18:14:00.244Z,100139.56
2019-01-27T18:16:31.495Z,100148.97
2019-01-27T18:19:04.331Z,100138.95
2019-01-27T18:21:35.871Z,100147.28
2019-01-27T18:24:20.903Z,100146.30
2019-01-27T18:26:56.358Z,100140.64
2019-01-27T18:29:30.386Z,100143.88
2019-01-27T18:32:03.270Z,100144.11
2019-01-27T18:34:35.652Z,100139.91
2019-01-27T18:37:07.064Z,100143.88
2019-01-27T18:39:40.004Z,100145.82
2019-01-27T18:42:15.821Z,100145.87
2019-01-27T18:44:47.242Z,100148.85
2019-01-27T18:47:20.262Z,100143.50
2019-01-27T18:49:51.483Z,100145.20
2019-01-27T18:52:22.969Z,100141.19
2019-01-27T18:55:11.929Z,100145.27
2019-01-27T18:58:10.122Z,100152.08
2019-01-27T19:00:52.663Z,100151.77
2019-01-27T19:03:50.815Z,100147.89
2019-01-27T19:06:47.707Z,100151.70
2019-01-27T19:09:40.976Z,100153.91
2019-01-27T19:12:40.905Z,100148.44
2019-01-27T19:15:37.714Z,100144.11
2019-01-27T19:18:43.156Z,100143.62
2019-01-27T19:21:39.461Z,100139.97
2019-01-27T19:24:40.228Z,100150.30
2019-01-27T19:27:32.935Z,100145.09
2019-01-27T19:30:15.294Z,100141.85
2019-01-27T19:32:57.076Z,100143.52
2019-01-27T19:35:54.112Z,100131.78
2019-01-27T19:38:52.914Z,100137.91
2019-01-27T19:41:35.568Z,100129.16
2019-01-27T19:44:15.916Z,100137.05
2019-01-27T19:46:57.883Z,100138.47
2019-01-27T19:50:00.413Z,100133.97
2019-01-27T19:52:59.650Z,100134.19
2019-01-27T19:56:09.873Z,100135.17
2019-01-27T19:59:04.918Z,100134.88
2019-01-27T20:02:07.485Z,100142.53
2019-01-27T20:04:56.708Z,99796.81
2019-01-27T20:07:48.526Z,100123.55
2019-01-27T20:10:59.191Z,100116.50
2019-01-27T20:13:52.817Z,100119.89
2019-01-27T20:16:43.545Z,100107.09
2019-01-27T20:19:25.949Z,100111.52
2019-01-27T20:22:19.107Z,100101.84
2019-01-27T20:25:16.427Z,100105.13
2019-01-27T20:28:21.826Z,100102.14
2019-01-27T20:31:12.332Z,100103.97
2019-01-27T20:33:53.985Z,100114.19
2019-01-27T20:36:36.781Z,100097.82
2019-01-27T20:39:27.516Z,100104.64
2019-01-27T20:42:08.065Z,100114.81
2019-01-27T20:45:02.442Z,100107.55
2019-01-27T20:48:00.815Z,100103.84
2019-01-27T20:50:49.937Z,100098.98
2019-01-27T20:53:39.763Z,100107.20
2019-01-27T20:56:35.689Z,100111.56
2019-01-27T20:59:23.357Z,100102.14
2019-01-27T21:02:17.723Z,100112.23
2019-01-27T21:05:00.978Z,100102.73
2019-01-27T21:07:38.161Z,100102.87
2019-01-27T21:10:29.108Z,100113.70
2019-01-27T21:13:17.892Z,100110.90
2019-01-27T21:15:55.204Z,100104.77
2019-01-27T21:18:45.449Z,100105.44
2019-01-27T21:21:16.742Z,100102.76
2019-01-27T21:23:47.956Z,100097.42
2019-01-27T21:26:19.163Z,100092.06
2019-01-27T21:28:50.449Z,100097.46
2019-01-27T21:31:21.662Z,100091.04
2019-01-27T21:33:52.891Z,100095.35
2019-01-27T21:36:24.120Z,100095.72
2019-01-27T21:38:55.368Z,100085.67
2019-01-27T21:41:26.784Z,100090.92
2019-01-27T21:43:58.199Z,100087.33
2019-01-27T21:46:29.415Z,100084.97
2019-01-27T21:49:00.700Z,100083.41
2019-01-27T21:51:31.892Z,100081.97
2019-01-27T21:54:03.102Z,100081.05
2019-01-27T21:56:34.305Z,100080.64
2019-01-27T21:59:05.581Z,100076.80
2019-01-27T22:01:36.908Z,100073.95
2019-01-27T22:04:08.124Z,100064.28
2019-01-27T22:06:39.329Z,100066.95
2019-01-27T22:09:10.891Z,100062.22
2019-01-27T22:11:42.711Z,100073.63
2019-01-27T22:14:14.389Z,100062.20
2019-01-27T22:16:45.681Z,100070.55
2019-01-27T22:19:16.918Z,100069.58
2019-01-27T22:21:48.102Z,100068.54
2019-01-27T22:24:19.462Z,100069.93
2019-01-27T22:26:50.748Z,100066.91
2019-01-27T22:29:21.973Z,100055.17
2019-01-27T22:31:53.196Z,100050.84
2019-01-27T22:34:24.391Z,100052.18
2019-01-27T22:36:55.677Z,100041.84
2019-01-27T22:39:26.880Z,100039.42
2019-01-27T22:41:58.162Z,100054.19
2019-01-27T22:44:29.361Z,100041.80
2019-01-27T22:47:00.558Z,100031.31
2019-01-27T22:49:31.772Z,100031.31
2019-01-27T22:52:03.003Z,100032.16
2019-01-27T22:54:34.208Z,99999.61
2019-01-27T22:57:05.459Z,100029.22
2019-01-27T22:59:36.730Z,100034.61
2019-01-27T23:02:07.960Z,100020.08
2019-01-27T23:04:39.111Z,100022.45
2019-01-27T23:07:10.287Z,100027.80
2019-01-27T23:09:41.643Z,100018.12
2019-01-27T23:12:12.832Z,100022.09
2019-01-27T23:14:44.036Z,100018.44
2019-01-27T23:17:15.759Z,100008.27
2019-01-27T23:19:46.953Z,99893.81
2019-01-27T23:22:18.168Z,100012.95
2019-01-27T23:24:49.359Z,100011.44
2019-01-27T23:27:20.702Z,100007.42
2019-01-27T23:29:52.687Z,100000.42
2019-01-27T23:32:23.874Z,99996.77
2019-01-27T23:34:55.091Z,100006.58
2019-01-27T23:37:27.065Z,99998.09
2019-01-27T23:39:58.372Z,100002.78
2019-01-27T23:42:29.691Z,100003.09
2019-01-27T23:45:00.888Z,99997.39
2019-01-27T23:47:32.862Z,100004.70
2019-01-27T23:50:04.188Z,100001.72
2019-01-27T23:52:35.399Z,100000.07
2019-01-27T23:55:06.913Z,100004.44
2019-01-27T23:57:38.182Z,99994.71
